createdAt,value
2022-08-22T00:03:10.013Z,2.00
2022-08-22T00:08:20.708Z,2.00
2022-08-22T00:14:01.390Z,1.00
2022-08-22T00:19:25.018Z,2.00
2022-08-22T00:24:56.916Z,2.00
2022-08-22T00:30:29.041Z,1.00
2022-08-22T00:36:00.738Z,2.00
2022-08-22T00:41:32.768Z,0.00
2022-08-22T00:47:05.111Z,0.00
2022-08-22T00:52:37.446Z,1.00
2022-08-22T00:58:09.446Z,1.00
2022-08-22T01:03:41.111Z,2.00
2022-08-22T01:09:13.080Z,0.00
2022-08-22T01:14:44.814Z,1.00
2022-08-22T01:20:16.696Z,1.00
2022-08-22T01:25:48.462Z,1.00
2022-08-22T01:31:20.527Z,0.00
2022-08-22T01:36:52.552Z,2.00
2022-08-22T01:42:24.624Z,0.00
2022-08-22T01:47:56.518Z,1.00
2022-08-22T01:53:28.657Z,0.00
2022-08-22T01:59:01.644Z,2.00
2022-08-22T02:04:32.447Z,2.00
2022-08-22T02:10:04.347Z,2.00
2022-08-22T02:15:36.092Z,0.00
2022-08-22T02:21:08.094Z,2.00
2022-08-22T02:26:40.158Z,0.00
2022-08-22T02:32:12.191Z,2.00
2022-08-22T02:37:44.020Z,2.00
2022-08-22T02:43:15.982Z,2.00
2022-08-22T02:48:48.282Z,1.00
2022-08-22T02:54:20.081Z,2.00
2022-08-22T02:59:52.131Z,1.00
2022-08-22T03:05:23.855Z,2.00
2022-08-22T03:10:55.763Z,2.00
2022-08-22T03:16:27.338Z,0.00
2022-08-22T03:21:59.117Z,2.00
2022-08-22T03:27:33.238Z,2.00
2022-08-22T03:33:03.457Z,2.00
2022-08-22T03:38:35.847Z,4.00
2022-08-22T03:44:07.891Z,8.00
2022-08-22T03:49:39.849Z,15.00
2022-08-22T03:55:12.209Z,40.00
2022-08-22T04:00:44.413Z,110.00
2022-08-22T04:06:16.557Z,267.00
2022-08-22T04:11:48.844Z,495.00
2022-08-22T04:17:20.821Z,827.00
2022-08-22T04:22:52.917Z,1295.00
2022-08-22T04:28:24.710Z,1839.00
2022-08-22T04:33:56.509Z,2501.00
2022-08-22T04:39:28.401Z,3386.00
2022-08-22T04:45:00.861Z,5918.00
2022-08-22T04:50:32.860Z,7625.00
2022-08-22T05:01:36.817Z,14567.00
2022-08-22T05:07:08.592Z,19436.00
2022-08-22T05:12:40.959Z,23546.00
2022-08-22T05:18:12.941Z,9461.00
2022-08-22T05:23:44.524Z,0.00
2022-08-22T05:29:16.649Z,0.00
2022-08-22T05:40:21.349Z,0.00
2022-08-22T05:45:53.344Z,0.00
2022-08-22T05:51:25.462Z,0.00
2022-08-22T05:56:57.793Z,0.00
2022-08-22T06:02:29.952Z,0.00
2022-08-22T06:08:02.064Z,0.00
2022-08-22T06:13:34.129Z,0.00
2022-08-22T06:19:19.254Z,0.00
2022-08-22T06:24:38.501Z,0.00
2022-08-22T06:30:10.131Z,0.00
2022-08-22T06:35:41.965Z,0.00
2022-08-22T06:41:13.697Z,0.00
2022-08-22T06:46:47.944Z,0.00
2022-08-22T06:52:19.615Z,0.00
2022-08-22T06:57:51.516Z,0.00
2022-08-22T07:03:23.473Z,0.00
2022-08-22T07:08:55.568Z,0.00
2022-08-22T07:14:27.376Z,0.00
2022-08-22T07:19:59.226Z,0.00
2022-08-22T07:31:02.946Z,751.00
2022-08-22T07:36:34.613Z,0.00
2022-08-22T07:47:38.130Z,0.00
2022-08-22T07:58:41.812Z,0.00
2022-08-22T08:04:13.818Z,0.00
2022-08-22T08:09:45.596Z,0.00
2022-08-22T08:15:17.086Z,0.00
2022-08-22T08:20:48.804Z,0.00
2022-08-22T08:26:20.726Z,0.00
2022-08-22T08:31:52.636Z,0.00
2022-08-22T08:37:24.491Z,0.00
2022-08-22T08:42:56.502Z,0.00
2022-08-22T08:48:28.571Z,0.00
2022-08-22T08:54:00.498Z,0.00
2022-08-22T08:59:32.474Z,0.00
2022-08-22T09:10:36.182Z,4223.00
2022-08-22T09:16:08.177Z,12774.00
2022-08-22T09:21:40.370Z,13364.00
2022-08-22T09:23:53.441Z,13578.00
2022-08-22T09:29:23.204Z,13513.00
2022-08-22T09:34:54.854Z,13979.00
2022-08-22T09:45:58.483Z,14856.00
2022-08-22T09:51:32.014Z,15118.00
2022-08-22T10:02:34.537Z,15160.00
2022-08-22T10:08:06.447Z,15078.00
2022-08-22T10:13:38.394Z,14883.00
2022-08-22T10:19:10.416Z,14534.00
2022-08-22T10:24:44.141Z,14143.00
2022-08-22T10:30:16.366Z,14222.00
2022-08-22T10:35:45.876Z,14736.00
2022-08-22T10:41:17.354Z,14809.00
2022-08-22T10:46:49.509Z,15155.00
2022-08-22T10:52:21.207Z,15351.00
2022-08-22T11:03:23.549Z,15116.00
2022-08-22T11:08:54.794Z,15128.00
2022-08-22T11:19:58.545Z,15022.00
2022-08-22T11:25:38.465Z,14968.00
2022-08-22T11:31:01.859Z,15721.00
2022-08-22T11:36:33.646Z,15707.00
2022-08-22T11:42:05.812Z,16273.00
2022-08-22T11:47:37.527Z,16923.00
2022-08-22T11:53:09.390Z,17909.00
2022-08-22T11:58:41.037Z,19219.00
2022-08-22T12:04:12.933Z,18944.00
2022-08-22T12:09:44.689Z,19194.00
2022-08-22T12:23:08.330Z,21498.00
2022-08-22T12:28:39.973Z,20588.00
2022-08-22T12:34:11.696Z,20389.00
2022-08-22T12:39:43.713Z,20049.00
2022-08-22T12:45:15.385Z,19648.00
2022-08-22T12:50:47.402Z,19061.00
2022-08-22T13:01:48.846Z,18539.00
2022-08-22T13:07:22.797Z,18385.00
2022-08-22T13:12:52.904Z,18437.00
2022-08-22T13:18:29.783Z,18394.00
2022-08-22T13:26:31.796Z,18479.00
2022-08-22T13:31:47.795Z,18580.00
2022-08-22T13:42:49.460Z,18944.00
2022-08-22T13:48:21.359Z,18944.00
2022-08-22T13:56:15.494Z,19304.00
2022-08-22T14:01:45.774Z,19688.00
2022-08-22T14:07:17.469Z,20205.00
2022-08-22T14:12:50.936Z,20712.00
2022-08-22T14:18:21.267Z,21307.00
2022-08-22T14:23:53.105Z,21793.00
2022-08-22T14:29:24.974Z,22028.00
2022-08-22T14:34:58.888Z,22412.00
2022-08-22T14:40:28.699Z,23045.00
2022-08-22T14:46:02.197Z,23655.00
2022-08-22T14:51:32.405Z,24197.00
2022-08-22T14:57:04.634Z,24557.00
2022-08-22T15:02:36.658Z,23375.00
2022-08-22T15:08:08.849Z,22384.00
2022-08-22T15:13:40.703Z,22135.00
2022-08-22T15:24:42.769Z,21776.00
2022-08-22T15:30:18.806Z,21474.00
2022-08-22T15:35:45.516Z,20972.00
2022-08-22T15:41:17.507Z,20333.00
2022-08-22T15:52:18.870Z,20189.00
2022-08-22T15:57:50.940Z,21160.00
2022-08-22T16:03:24.364Z,22803.00
2022-08-22T16:08:56.315Z,22998.00
2022-08-22T16:14:29.661Z,19178.00
2022-08-22T16:20:00.407Z,16075.00
2022-08-22T16:25:32.134Z,15382.00
2022-08-22T16:31:03.583Z,15018.00
2022-08-22T16:36:35.811Z,14459.00
2022-08-22T16:42:07.416Z,13930.00
2022-08-22T16:47:39.437Z,13394.00
2022-08-22T16:53:11.089Z,12885.00
2022-08-22T16:58:56.958Z,12336.00
2022-08-22T17:04:14.970Z,11767.00
2022-08-22T17:09:47.247Z,11106.00
2022-08-22T17:15:19.403Z,10419.00
2022-08-22T17:20:51.058Z,9742.00
2022-08-22T17:26:23.218Z,9013.00
2022-08-22T17:31:55.338Z,8248.00
2022-08-22T17:37:26.924Z,7425.00
2022-08-22T17:42:58.816Z,6541.00
2022-08-22T17:48:30.656Z,5628.00
2022-08-22T17:54:02.440Z,4683.00
2022-08-22T17:59:33.830Z,3693.00
2022-08-22T18:05:05.301Z,2712.00
2022-08-22T18:10:37.185Z,1892.00
2022-08-22T18:16:08.649Z,1208.00
2022-08-22T18:21:40.556Z,652.00
2022-08-22T18:27:29.686Z,288.00
2022-08-22T18:32:43.986Z,115.00
2022-08-22T18:38:19.768Z,50.00
2022-08-22T18:43:47.719Z,20.00
2022-08-22T18:51:40.784Z,6.00
2022-08-22T18:57:12.556Z,3.00
2022-08-22T19:02:47.055Z,2.00
2022-08-22T19:08:15.622Z,1.00
2022-08-22T19:13:47.139Z,2.00
2022-08-22T19:19:18.889Z,2.00
2022-08-22T19:24:50.162Z,1.00
2022-08-22T19:30:21.640Z,2.00
2022-08-22T19:35:53.617Z,2.00
2022-08-22T19:41:25.693Z,1.00
2022-08-22T19:46:56.859Z,0.00
2022-08-22T19:52:28.236Z,0.00
2022-08-22T19:57:59.483Z,2.00
2022-08-22T20:03:30.877Z,0.00
2022-08-22T20:09:02.473Z,2.00
2022-08-22T20:14:34.290Z,2.00
2022-08-22T20:20:27.943Z,0.00
2022-08-22T20:25:42.730Z,2.00
2022-08-22T20:31:09.643Z,2.00
2022-08-22T20:36:41.079Z,0.00
2022-08-22T20:42:12.550Z,2.00
2022-08-22T20:47:48.923Z,0.00
2022-08-22T20:53:15.898Z,0.00
2022-08-22T20:58:47.233Z,2.00
2022-08-22T21:04:19.008Z,2.00
2022-08-22T21:09:50.509Z,2.00
2022-08-22T21:15:22.558Z,2.00
2022-08-22T21:20:54.312Z,2.00
2022-08-22T21:26:26.343Z,2.00
2022-08-22T21:31:59.214Z,0.00
2022-08-22T21:37:29.828Z,1.00
2022-08-22T21:43:01.716Z,1.00
2022-08-22T21:48:33.757Z,2.00
2022-08-22T21:54:17.687Z,0.00
2022-08-22T21:59:58.737Z,2.00
2022-08-22T22:05:12.400Z,2.00
2022-08-22T22:10:44.015Z,2.00
2022-08-22T22:16:16.262Z,2.00
2022-08-22T22:21:48.573Z,0.00
2022-08-22T22:27:20.549Z,2.00
2022-08-22T22:32:52.494Z,0.00
2022-08-22T22:38:24.371Z,2.00
2022-08-22T22:43:56.388Z,2.00
2022-08-22T22:49:28.197Z,2.00
2022-08-22T23:00:31.803Z,2.00
2022-08-22T23:06:03.566Z,2.00
2022-08-22T23:11:35.487Z,2.00
2022-08-22T23:22:39.009Z,1.00
2022-08-22T23:28:10.820Z,1.00
2022-08-22T23:33:42.494Z,2.00
2022-08-22T23:44:46.874Z,2.00
2022-08-22T23:55:50.310Z,1.00
